الصفحة الرئيسية
METAR-TAF:

METAR-TAF

مطار :

Nueva Loja, الإكوادور

دائرة عرض: 00-05-33N, خط طول: 076-52-10W, ارتفاع: 299 متر

مراقبة الطقس الحالي

تاريخ ووقت الإصدار 52 دقيقة قبل الساعة 17:00UTC
ريح 3 عقدة من الجنوب/الجنوب الشرقي
درجة الحرارة 29°درجة مئوية
الرطوبة 74%
ضغط 1013 hPa
الرؤية 10 كم أو أكثر
غيوم قليلة على ارتفاع 2000 قدم
غيوم مفككة على ارتفاع 10000 قدم

METAR: SENL 041700Z 16003KT 9999 FEW020 BKN100 29/24 Q1013 RMK A2992

زمن: 12:52 (17:52 UTC)


TAF: مفقودة

أرصاد الطقس والتوقعات من أكثر من 4000 مطار (تقارير الطقس للمطار METAR والتنبؤ بالطقس بالمطارTAF).

المحطات المتاحة هي النقط الصفراء والحمراء على الخريطة.

حرك المؤشر فوق النقطة لمعرفة اسم المحطة.

ثم انقر لمعرفة أرصاد وتوقعات الطقس.

لتغيير الخارطة: اضغط على الأزرار الخضراء مع رمز الصليب الأسود للتكبير. على الزر الأخضر مع شرطة للتصغير، أو على الأسهم الخضراء للخرائط المجاورة.


METAR-TAF: